Aviation Digital Data Service (ADDS)

Output produced by METARs form (2259 UTC 15 February 2019)
found at http://www.aviationweather.gov/metar/data/
 
METAR text: KTPA 152253Z 27006KT 10SM FEW200 BKN300 22/12 A2995 RMK AO2 SLP142 T02170122
Conditions at: KTPA (TAMPA , FL, US) observed 2253 UTC 15 February 2019
Temperature: 21.7°C (71°F)
Dewpoint: 12.2°C (54°F) [RH = 55%]
Pressure (altimeter): 29.95 inches Hg (1014.3 mb)
[Sea-level pressure: 1014.2 mb]
Winds: from the W (270 degrees) at 7 MPH (6 knots; 3.1 m/s)
Visibility: 10 or more miles (16+ km)
Ceiling: 30000 feet AGL
Clouds: few clouds at 20000 feet AGL
broken clouds at 30000 feet AGL
Weather: no significant weather observed at this time

METAR text: KTPA 152153Z 27008KT 10SM FEW210 BKN300 22/12 A2996 RMK AO2 SLP144 T02220122
Conditions at: KTPA (TAMPA , FL, US) observed 2153 UTC 15 February 2019
Temperature: 22.2°C (72°F)
Dewpoint: 12.2°C (54°F) [RH = 53%]
Pressure (altimeter): 29.96 inches Hg (1014.6 mb)
[Sea-level pressure: 1014.4 mb]
Winds: from the W (270 degrees) at 9 MPH (8 knots; 4.1 m/s)
Visibility: 10 or more miles (16+ km)
Ceiling: 30000 feet AGL
Clouds: few clouds at 21000 feet AGL
broken clouds at 30000 feet AGL
Weather: no significant weather observed at this time

METAR text: KTPA 152053Z 27010KT 10SM BKN220 BKN300 23/12 A2997 RMK AO2 SLP147 T02280122 56018
Conditions at: KTPA (TAMPA , FL, US) observed 2053 UTC 15 February 2019
Temperature: 22.8°C (73°F)
Dewpoint: 12.2°C (54°F) [RH = 51%]
Pressure (altimeter): 29.97 inches Hg (1015.0 mb)
[Sea-level pressure: 1014.7 mb]
Winds: from the W (270 degrees) at 12 MPH (10 knots; 5.1 m/s)
Visibility: 10 or more miles (16+ km)
Ceiling: 22000 feet AGL
Clouds: broken clouds at 22000 feet AGL
broken clouds at 30000 feet AGL
Weather: no significant weather observed at this time

METAR text: KTPA 151953Z 27005KT 10SM BKN220 OVC300 23/11 A2997 RMK AO2 SLP147 T02330111
Conditions at: KTPA (TAMPA , FL, US) observed 1953 UTC 15 February 2019
Temperature: 23.3°C (74°F)
Dewpoint: 11.1°C (52°F) [RH = 46%]
Pressure (altimeter): 29.97 inches Hg (1015.0 mb)
[Sea-level pressure: 1014.7 mb]
Winds: from the W (270 degrees) at 6 MPH (5 knots; 2.6 m/s)
Visibility: 10 or more miles (16+ km)
Ceiling: 22000 feet AGL
Clouds: broken clouds at 22000 feet AGL
overcast cloud deck at 30000 feet AGL
Weather: no significant weather observed at this time

METAR text: KTPA 151853Z VRB05KT 10SM BKN250 24/11 A2996 RMK AO2 SLP145 T02390111
Conditions at: KTPA (TAMPA , FL, US) observed 1853 UTC 15 February 2019
Temperature: 23.9°C (75°F)
Dewpoint: 11.1°C (52°F) [RH = 45%]
Pressure (altimeter): 29.96 inches Hg (1014.6 mb)
[Sea-level pressure: 1014.5 mb]
Winds: variable direction winds at 6 MPH (5 knots; 2.6 m/s)
Visibility: 10 or more miles (16+ km)
Ceiling: 25000 feet AGL
Clouds: broken clouds at 25000 feet AGL
Weather: no significant weather observed at this time

METAR text: KTPA 151753Z 22006KT 10SM BKN250 23/11 A3002 RMK AO2 SLP164 T02330106 10239 20133 58007
Conditions at: KTPA (TAMPA , FL, US) observed 1753 UTC 15 February 2019
Temperature: 23.3°C (74°F)
Dewpoint: 10.6°C (51°F) [RH = 45%]
Pressure (altimeter): 30.02 inches Hg (1016.7 mb)
[Sea-level pressure: 1016.4 mb]
Winds: from the SW (220 degrees) at 7 MPH (6 knots; 3.1 m/s)
Visibility: 10 or more miles (16+ km)
Ceiling: 25000 feet AGL
Clouds: broken clouds at 25000 feet AGL
Weather: no significant weather observed at this time

METAR text: KTPA 151653Z 18008KT 10SM BKN250 23/13 A3002 RMK AO2 SLP164 T02280133 $
Conditions at: KTPA (TAMPA , FL, US) observed 1653 UTC 15 February 2019
Temperature: 22.8°C (73°F)
Dewpoint: 13.3°C (56°F) [RH = 55%]
Pressure (altimeter): 30.02 inches Hg (1016.7 mb)
[Sea-level pressure: 1016.4 mb]
Winds: from the S (180 degrees) at 9 MPH (8 knots; 4.1 m/s)
Visibility: 10 or more miles (16+ km)
Ceiling: 25000 feet AGL
Clouds: broken clouds at 25000 feet AGL
Weather:
SOME DATA ABOVE MAY BE INACCURATE!!!
"$" is an indication the sensor requires maintenance

METAR text: KTPA 151553Z 24006KT 10SM BKN250 22/15 A3005 RMK AO2 SLP173 T02220150
Conditions at: KTPA (TAMPA , FL, US) observed 1553 UTC 15 February 2019
Temperature: 22.2°C (72°F)
Dewpoint: 15.0°C (59°F) [RH = 64%]
Pressure (altimeter): 30.05 inches Hg (1017.7 mb)
[Sea-level pressure: 1017.3 mb]
Winds: from the WSW (240 degrees) at 7 MPH (6 knots; 3.1 m/s)
Visibility: 10 or more miles (16+ km)
Ceiling: 25000 feet AGL
Clouds: broken clouds at 25000 feet AGL
Weather: no significant weather observed at this time

METAR text: KTPA 151453Z VRB04KT 10SM SCT250 21/14 A3004 RMK AO2 SLP171 T02060139 50003
Conditions at: KTPA (TAMPA , FL, US) observed 1453 UTC 15 February 2019
Temperature: 20.6°C (69°F)
Dewpoint: 13.9°C (57°F) [RH = 65%]
Pressure (altimeter): 30.04 inches Hg (1017.4 mb)
[Sea-level pressure: 1017.1 mb]
Winds: variable direction winds at 5 MPH (4 knots; 2.1 m/s)
Visibility: 10 or more miles (16+ km)
Ceiling: at least 12,000 feet AGL
Clouds: scattered clouds at 25000 feet AGL
Weather: no significant weather observed at this time

METAR text: KTPA 151353Z 00000KT 10SM SCT250 18/13 A3004 RMK AO2 SLP173 T01780133
Conditions at: KTPA (TAMPA , FL, US) observed 1353 UTC 15 February 2019
Temperature: 17.8°C (64°F)
Dewpoint: 13.3°C (56°F) [RH = 75%]
Pressure (altimeter): 30.04 inches Hg (1017.4 mb)
[Sea-level pressure: 1017.3 mb]
Winds: calm
Visibility: 10 or more miles (16+ km)
Ceiling: at least 12,000 feet AGL
Clouds: scattered clouds at 25000 feet AGL
Weather: no significant weather observed at this time

METAR text: KTPA 151253Z 00000KT 10SM FEW200 15/13 A3004 RMK AO2 SLP173 T01500128
Conditions at: KTPA (TAMPA , FL, US) observed 1253 UTC 15 February 2019
Temperature: 15.0°C (59°F)
Dewpoint: 12.8°C (55°F) [RH = 87%]
Pressure (altimeter): 30.04 inches Hg (1017.4 mb)
[Sea-level pressure: 1017.3 mb]
Winds: calm
Visibility: 10 or more miles (16+ km)
Ceiling: at least 12,000 feet AGL
Clouds: few clouds at 20000 feet AGL
Weather: no significant weather observed at this time

METAR text: KTPA 151153Z 33003KT 10SM FEW190 14/12 A3003 RMK AO2 SLP168 T01440117 10161 20133 53015
Conditions at: KTPA (TAMPA , FL, US) observed 1153 UTC 15 February 2019
Temperature: 14.4°C (58°F)
Dewpoint: 11.7°C (53°F) [RH = 84%]
Pressure (altimeter): 30.03 inches Hg (1017.0 mb)
[Sea-level pressure: 1016.8 mb]
Winds: from the NNW (330 degrees) at 3 MPH (3 knots; 1.5 m/s)
Visibility: 10 or more miles (16+ km)
Ceiling: at least 12,000 feet AGL
Clouds: few clouds at 19000 feet AGL
Weather: no significant weather observed at this time

METAR text: KTPA 151053Z 13004KT 10SM CLR 14/12 A3000 RMK AO2 SLP157 T01440122
Conditions at: KTPA (TAMPA , FL, US) observed 1053 UTC 15 February 2019
Temperature: 14.4°C (58°F)
Dewpoint: 12.2°C (54°F) [RH = 87%]
Pressure (altimeter): 30.00 inches Hg (1016.0 mb)
[Sea-level pressure: 1015.7 mb]
Winds: from the SE (130 degrees) at 5 MPH (4 knots; 2.1 m/s)
Visibility: 10 or more miles (16+ km)
Ceiling: at least 12,000 feet AGL
Clouds: sky clear below 12,000 feet AGL
Weather: no significant weather observed at this time

METAR text: KTPA 150953Z 12003KT 10SM CLR 14/12 A3000 RMK AO2 SLP157 T01440122
Conditions at: KTPA (TAMPA , FL, US) observed 0953 UTC 15 February 2019
Temperature: 14.4°C (58°F)
Dewpoint: 12.2°C (54°F) [RH = 87%]
Pressure (altimeter): 30.00 inches Hg (1016.0 mb)
[Sea-level pressure: 1015.7 mb]
Winds: from the ESE (120 degrees) at 3 MPH (3 knots; 1.5 m/s)
Visibility: 10 or more miles (16+ km)
Ceiling: at least 12,000 feet AGL
Clouds: sky clear below 12,000 feet AGL
Weather: no significant weather observed at this time

METAR text: KTPA 150853Z 00000KT 10SM BKN200 15/12 A2999 RMK AO2 SLP154 T01500122 58022
Conditions at: KTPA (TAMPA , FL, US) observed 0853 UTC 15 February 2019
Temperature: 15.0°C (59°F)
Dewpoint: 12.2°C (54°F) [RH = 83%]
Pressure (altimeter): 29.99 inches Hg (1015.7 mb)
[Sea-level pressure: 1015.4 mb]
Winds: calm
Visibility: 10 or more miles (16+ km)
Ceiling: 20000 feet AGL
Clouds: broken clouds at 20000 feet AGL
Weather: no significant weather observed at this time

METAR text: KTPA 150753Z 00000KT 10SM BKN200 15/12 A3002 RMK AO2 SLP164 T01500122
Conditions at: KTPA (TAMPA , FL, US) observed 0753 UTC 15 February 2019
Temperature: 15.0°C (59°F)
Dewpoint: 12.2°C (54°F) [RH = 83%]
Pressure (altimeter): 30.02 inches Hg (1016.7 mb)
[Sea-level pressure: 1016.4 mb]
Winds: calm
Visibility: 10 or more miles (16+ km)
Ceiling: 20000 feet AGL
Clouds: broken clouds at 20000 feet AGL
Weather: no significant weather observed at this time

METAR text: KTPA 150653Z 01004KT 10SM BKN200 16/13 A3005 RMK AO2 SLP175 T01560128
Conditions at: KTPA (TAMPA , FL, US) observed 0653 UTC 15 February 2019
Temperature: 15.6°C (60°F)
Dewpoint: 12.8°C (55°F) [RH = 83%]
Pressure (altimeter): 30.05 inches Hg (1017.7 mb)
[Sea-level pressure: 1017.5 mb]
Winds: from the N (10 degrees) at 5 MPH (4 knots; 2.1 m/s)
Visibility: 10 or more miles (16+ km)
Ceiling: 20000 feet AGL
Clouds: broken clouds at 20000 feet AGL
Weather: no significant weather observed at this time

METAR text: KTPA 150553Z 01006KT 10SM BKN200 16/13 A3005 RMK AO2 SLP176 T01610128 10194 20161 58002
Conditions at: KTPA (TAMPA , FL, US) observed 0553 UTC 15 February 2019
Temperature: 16.1°C (61°F)
Dewpoint: 12.8°C (55°F) [RH = 81%]
Pressure (altimeter): 30.05 inches Hg (1017.7 mb)
[Sea-level pressure: 1017.6 mb]
Winds: from the N (10 degrees) at 7 MPH (6 knots; 3.1 m/s)
Visibility: 10 or more miles (16+ km)
Ceiling: 20000 feet AGL
Clouds: broken clouds at 20000 feet AGL
Weather: no significant weather observed at this time

METAR text: KTPA 150453Z COR 36006KT 10SM BKN200 16/13 A3005 RMK AO2 SLP176 T01610128 402440067
Conditions at: KTPA (TAMPA , FL, US) observed 0453 UTC 15 February 2019
Temperature: 16.1°C (61°F)
Dewpoint: 12.8°C (55°F) [RH = 81%]
Pressure (altimeter): 30.05 inches Hg (1017.7 mb)
[Sea-level pressure: 1017.6 mb]
Winds: from the N (360 degrees) at 7 MPH (6 knots; 3.1 m/s)
Visibility: 10 or more miles (16+ km)
Ceiling: 20000 feet AGL
Clouds: broken clouds at 20000 feet AGL
Weather: no significant weather observed at this time

METAR text: KTPA 150353Z 36007KT 10SM OVC200 17/12 A3006 RMK AO2 SLP179 T01670122
Conditions at: KTPA (TAMPA , FL, US) observed 0353 UTC 15 February 2019
Temperature: 16.7°C (62°F)
Dewpoint: 12.2°C (54°F) [RH = 75%]
Pressure (altimeter): 30.06 inches Hg (1018.0 mb)
[Sea-level pressure: 1017.9 mb]
Winds: from the N (360 degrees) at 8 MPH (7 knots; 3.6 m/s)
Visibility: 10 or more miles (16+ km)
Ceiling: 20000 feet AGL
Clouds: overcast cloud deck at 20000 feet AGL
Weather: no significant weather observed at this time

METAR text: KTPA 150253Z 36004KT 10SM FEW140 OVC220 17/12 A3006 RMK AO2 SLP178 T01720117 53011
Conditions at: KTPA (TAMPA , FL, US) observed 0253 UTC 15 February 2019
Temperature: 17.2°C (63°F)
Dewpoint: 11.7°C (53°F) [RH = 70%]
Pressure (altimeter): 30.06 inches Hg (1018.0 mb)
[Sea-level pressure: 1017.8 mb]
Winds: from the N (360 degrees) at 5 MPH (4 knots; 2.1 m/s)
Visibility: 10 or more miles (16+ km)
Ceiling: 22000 feet AGL
Clouds: few clouds at 14000 feet AGL
overcast cloud deck at 22000 feet AGL
Weather: no significant weather observed at this time

METAR text: KTPA 150153Z 35005KT 10SM SCT100 BKN220 17/12 A3004 RMK AO2 SLP173 T01720117
Conditions at: KTPA (TAMPA , FL, US) observed 0153 UTC 15 February 2019
Temperature: 17.2°C (63°F)
Dewpoint: 11.7°C (53°F) [RH = 70%]
Pressure (altimeter): 30.04 inches Hg (1017.4 mb)
[Sea-level pressure: 1017.3 mb]
Winds: from the N (350 degrees) at 6 MPH (5 knots; 2.6 m/s)
Visibility: 10 or more miles (16+ km)
Ceiling: 22000 feet AGL
Clouds: scattered clouds at 10000 feet AGL
broken clouds at 22000 feet AGL
Weather: no significant weather observed at this time

METAR text: KTPA 150053Z VRB05KT 10SM SCT100 BKN220 18/12 A3003 RMK AO2 SLP169 T01780122
Conditions at: KTPA (TAMPA , FL, US) observed 0053 UTC 15 February 2019
Temperature: 17.8°C (64°F)
Dewpoint: 12.2°C (54°F) [RH = 70%]
Pressure (altimeter): 30.03 inches Hg (1017.0 mb)
[Sea-level pressure: 1016.9 mb]
Winds: variable direction winds at 6 MPH (5 knots; 2.6 m/s)
Visibility: 10 or more miles (16+ km)
Ceiling: 22000 feet AGL
Clouds: scattered clouds at 10000 feet AGL
broken clouds at 22000 feet AGL
Weather: no significant weather observed at this time

METAR text: KTPA 142353Z 30007KT 10SM FEW030 SCT140 BKN220 19/12 A3003 RMK AO2 SLP167 T01940122 10244 20183 58002
Conditions at: KTPA (TAMPA , FL, US) observed 2353 UTC 14 February 2019
Temperature: 19.4°C (67°F)
Dewpoint: 12.2°C (54°F) [RH = 63%]
Pressure (altimeter): 30.03 inches Hg (1017.0 mb)
[Sea-level pressure: 1016.7 mb]
Winds: from the WNW (300 degrees) at 8 MPH (7 knots; 3.6 m/s)
Visibility: 10 or more miles (16+ km)
Ceiling: 22000 feet AGL
Clouds: few clouds at 3000 feet AGL
scattered clouds at 14000 feet AGL
broken clouds at 22000 feet AGL
Weather: no significant weather observed at this time

METAR text: KTPA 142253Z 28005KT 10SM FEW032 BKN130 BKN210 21/13 A3003 RMK AO2 SLP168 T02060128
Conditions at: KTPA (TAMPA , FL, US) observed 2253 UTC 14 February 2019
Temperature: 20.6°C (69°F)
Dewpoint: 12.8°C (55°F) [RH = 61%]
Pressure (altimeter): 30.03 inches Hg (1017.0 mb)
[Sea-level pressure: 1016.8 mb]
Winds: from the W (280 degrees) at 6 MPH (5 knots; 2.6 m/s)
Visibility: 10 or more miles (16+ km)
Ceiling: 13000 feet AGL
Clouds: few clouds at 3200 feet AGL
broken clouds at 13000 feet AGL
broken clouds at 21000 feet AGL
Weather: no significant weather observed at this time

METAR text: KTPA 142153Z 03003KT 10SM FEW030 BKN120 BKN230 23/08 A3003 RMK AO2 SLP168 T02280078
Conditions at: KTPA (TAMPA , FL, US) observed 2153 UTC 14 February 2019
Temperature: 22.8°C (73°F)
Dewpoint: 7.8°C (46°F) [RH = 38%]
Pressure (altimeter): 30.03 inches Hg (1017.0 mb)
[Sea-level pressure: 1016.8 mb]
Winds: from the NNE (30 degrees) at 3 MPH (3 knots; 1.5 m/s)
Visibility: 10 or more miles (16+ km)
Ceiling: 12000 feet AGL
Clouds: few clouds at 3000 feet AGL
broken clouds at 12000 feet AGL
broken clouds at 23000 feet AGL
Weather: no significant weather observed at this time

METAR text: KTPA 142053Z 07007KT 10SM SCT140 BKN230 24/07 A3003 RMK AO2 SLP169 T02390072 56015
Conditions at: KTPA (TAMPA , FL, US) observed 2053 UTC 14 February 2019
Temperature: 23.9°C (75°F)
Dewpoint: 7.2°C (45°F) [RH = 34%]
Pressure (altimeter): 30.03 inches Hg (1017.0 mb)
[Sea-level pressure: 1016.9 mb]
Winds: from the ENE (70 degrees) at 8 MPH (7 knots; 3.6 m/s)
Visibility: 10 or more miles (16+ km)
Ceiling: 23000 feet AGL
Clouds: scattered clouds at 14000 feet AGL
broken clouds at 23000 feet AGL
Weather: no significant weather observed at this time

METAR text: KTPA 141953Z 05008KT 020V110 10SM SCT250 24/08 A3003 RMK AO2 SLP170 T02390078
Conditions at: KTPA (TAMPA , FL, US) observed 1953 UTC 14 February 2019
Temperature: 23.9°C (75°F)
Dewpoint: 7.8°C (46°F) [RH = 36%]
Pressure (altimeter): 30.03 inches Hg (1017.0 mb)
[Sea-level pressure: 1017.0 mb]
Winds: from the NE (50 degrees) at 9 MPH (8 knots; 4.1 m/s)
Visibility: 10 or more miles (16+ km)
Ceiling: at least 12,000 feet AGL
Clouds: scattered clouds at 25000 feet AGL
Weather: no significant weather observed at this time

METAR text: KTPA 141853Z 14006KT 10SM SCT250 23/08 A3004 RMK AO2 SLP172 T02330083
Conditions at: KTPA (TAMPA , FL, US) observed 1853 UTC 14 February 2019
Temperature: 23.3°C (74°F)
Dewpoint: 8.3°C (47°F) [RH = 38%]
Pressure (altimeter): 30.04 inches Hg (1017.4 mb)
[Sea-level pressure: 1017.2 mb]
Winds: from the SE (140 degrees) at 7 MPH (6 knots; 3.1 m/s)
Visibility: 10 or more miles (16+ km)
Ceiling: at least 12,000 feet AGL
Clouds: scattered clouds at 25000 feet AGL
Weather: no significant weather observed at this time

METAR text: KTPA 141753Z 08007KT 10SM SCT250 22/08 A3008 RMK AO2 SLP184 T02220083 10222 20083 58030
Conditions at: KTPA (TAMPA , FL, US) observed 1753 UTC 14 February 2019
Temperature: 22.2°C (72°F)
Dewpoint: 8.3°C (47°F) [RH = 41%]
Pressure (altimeter): 30.08 inches Hg (1018.7 mb)
[Sea-level pressure: 1018.4 mb]
Winds: from the E (80 degrees) at 8 MPH (7 knots; 3.6 m/s)
Visibility: 10 or more miles (16+ km)
Ceiling: at least 12,000 feet AGL
Clouds: scattered clouds at 25000 feet AGL
Weather: no significant weather observed at this time

METAR text: KTPA 141653Z 07007KT 10SM SCT250 20/09 A3011 RMK AO2 SLP195 T02000094
Conditions at: KTPA (TAMPA , FL, US) observed 1653 UTC 14 February 2019
Temperature: 20.0°C (68°F)
Dewpoint: 9.4°C (49°F) [RH = 50%]
Pressure (altimeter): 30.11 inches Hg (1019.7 mb)
[Sea-level pressure: 1019.5 mb]
Winds: from the ENE (70 degrees) at 8 MPH (7 knots; 3.6 m/s)
Visibility: 10 or more miles (16+ km)
Ceiling: at least 12,000 feet AGL
Clouds: scattered clouds at 25000 feet AGL
Weather: no significant weather observed at this time

METAR text: KTPA 141553Z 05005KT 10SM SCT250 18/08 A3015 RMK AO2 SLP207 T01830083
Conditions at: KTPA (TAMPA , FL, US) observed 1553 UTC 14 February 2019
Temperature: 18.3°C (65°F)
Dewpoint: 8.3°C (47°F) [RH = 52%]
Pressure (altimeter): 30.15 inches Hg (1021.1 mb)
[Sea-level pressure: 1020.7 mb]
Winds: from the NE (50 degrees) at 6 MPH (5 knots; 2.6 m/s)
Visibility: 10 or more miles (16+ km)
Ceiling: at least 12,000 feet AGL
Clouds: scattered clouds at 25000 feet AGL
Weather: no significant weather observed at this time

METAR text: KTPA 141453Z 01006KT 10SM SCT250 16/06 A3017 RMK AO2 SLP214 T01610061 53004
Conditions at: KTPA (TAMPA , FL, US) observed 1453 UTC 14 February 2019
Temperature: 16.1°C (61°F)
Dewpoint: 6.1°C (43°F) [RH = 51%]
Pressure (altimeter): 30.17 inches Hg (1021.8 mb)
[Sea-level pressure: 1021.4 mb]
Winds: from the N (10 degrees) at 7 MPH (6 knots; 3.1 m/s)
Visibility: 10 or more miles (16+ km)
Ceiling: at least 12,000 feet AGL
Clouds: scattered clouds at 25000 feet AGL
Weather: no significant weather observed at this time

METAR text: KTPA 141353Z COR 04007KT 10SM SCT250 13/04 A3015 RMK AO2 SLP210 T01280044
Conditions at: KTPA (TAMPA , FL, US) observed 1353 UTC 14 February 2019
Temperature: 12.8°C (55°F)
Dewpoint: 4.4°C (40°F) [RH = 57%]
Pressure (altimeter): 30.15 inches Hg (1021.1 mb)
[Sea-level pressure: 1021.0 mb]
Winds: from the NE (40 degrees) at 8 MPH (7 knots; 3.6 m/s)
Visibility: 10 or more miles (16+ km)
Ceiling: at least 12,000 feet AGL
Clouds: scattered clouds at 25000 feet AGL
Weather: no significant weather observed at this time

METAR text: KTPA 141253Z VRB05KT 10SM FEW250 10/03 A3016 RMK AO2 SLP212 T01000033
Conditions at: KTPA (TAMPA , FL, US) observed 1253 UTC 14 February 2019
Temperature: 10.0°C (50°F)
Dewpoint: 3.3°C (38°F) [RH = 63%]
Pressure (altimeter): 30.16 inches Hg (1021.4 mb)
[Sea-level pressure: 1021.2 mb]
Winds: variable direction winds at 6 MPH (5 knots; 2.6 m/s)
Visibility: 10 or more miles (16+ km)
Ceiling: at least 12,000 feet AGL
Clouds: few clouds at 25000 feet AGL
Weather: no significant weather observed at this time

METAR text: KTPA 141153Z 02007KT 10SM FEW250 08/03 A3015 RMK AO2 SLP210 70007 T00830033 10106 20067 53001
Conditions at: KTPA (TAMPA , FL, US) observed 1153 UTC 14 February 2019
Temperature: 8.3°C (47°F)
Dewpoint: 3.3°C (38°F) [RH = 71%]
Pressure (altimeter): 30.15 inches Hg (1021.1 mb)
[Sea-level pressure: 1021.0 mb]
Winds: from the NNE (20 degrees) at 8 MPH (7 knots; 3.6 m/s)
Visibility: 10 or more miles (16+ km)
Ceiling: at least 12,000 feet AGL
Clouds: few clouds at 25000 feet AGL
Weather: no significant weather observed at this time

Forecast for: KTPA (TAMPA , FL, US)
Text: KTPA 152122Z 1521/1624 27006KT P6SM BKN250
Forecast period: 2100 UTC 15 February 2019 to 0300 UTC 16 February 2019
Forecast type: FROM: standard forecast or significant change
Winds: from the W (270 degrees) at 7 MPH (6 knots; 3.1 m/s)
Visibility: 6 or more miles 10+ km)
Ceiling: 25000 feet AGL
Clouds: broken clouds at 25000 feet AGL
Weather: no significant weather forecast for this period
Text: FM160300 VRB04KT P6SM FEW250
Forecast period: 0300 to 0900 UTC 16 February 2019
Forecast type: FROM: standard forecast or significant change
Winds: variable direction winds at 5 MPH (4 knots; 2.1 m/s)
Visibility: 6 or more miles 10+ km)
Ceiling: at least 12,000 feet AGL
Clouds: few clouds at 25000 feet AGL
Weather: no significant weather forecast for this period
Text: FM160900 VRB03KT 5SM BR FEW010 SCT030
Forecast period: 0900 to 1500 UTC 16 February 2019
Forecast type: FROM: standard forecast or significant change
Winds: variable direction winds at 3 MPH (3 knots; 1.5 m/s)
Visibility: 5 miles (8 km)
Ceiling: at least 12,000 feet AGL
Clouds: few clouds at 1000 feet AGL
scattered clouds at 3000 feet AGL
Weather: BR  (mist)
Text: FM161500 19006KT P6SM SCT020 BKN050
Forecast period: 1500 to 2300 UTC 16 February 2019
Forecast type: FROM: standard forecast or significant change
Winds: from the S (190 degrees) at 7 MPH (6 knots; 3.1 m/s)
Visibility: 6 or more miles 10+ km)
Ceiling: 5000 feet AGL
Clouds: scattered clouds at 2000 feet AGL
broken clouds at 5000 feet AGL
Weather: no significant weather forecast for this period
Text: FM162300 21008KT P6SM SCT030 BKN250
Forecast period: 2300 UTC 16 February 2019 to 0000 UTC 17 February 2019
Forecast type: FROM: standard forecast or significant change
Winds: from the SSW (210 degrees) at 9 MPH (8 knots; 4.1 m/s)
Visibility: 6 or more miles 10+ km)
Ceiling: 25000 feet AGL
Clouds: scattered clouds at 3000 feet AGL
broken clouds at 25000 feet AGL
Weather: no significant weather forecast for this period